createdAt,value
2022-08-17T00:01:51.687Z,54.80
2022-08-17T00:04:24.513Z,54.90
2022-08-17T00:06:53.378Z,54.90
2022-08-17T00:09:21.529Z,55.00
2022-08-17T00:12:40.763Z,55.00
2022-08-17T00:14:40.496Z,55.00
2022-08-17T00:17:08.732Z,54.80
2022-08-17T00:19:36.961Z,54.80
2022-08-17T00:22:32.472Z,54.60
2022-08-17T00:24:55.346Z,54.50
2022-08-17T00:27:23.584Z,54.40
2022-08-17T00:29:53.256Z,54.20
2022-08-17T00:33:14.483Z,54.20
2022-08-17T00:35:12.961Z,54.20
2022-08-17T00:37:41.526Z,54.40
2022-08-17T00:40:13.004Z,54.70
2022-08-17T00:42:41.459Z,55.10
2022-08-17T00:45:14.635Z,55.30
2022-08-17T00:47:43.682Z,55.10
2022-08-17T00:50:15.116Z,54.90
2022-08-17T00:52:49.134Z,54.90
2022-08-17T00:55:17.519Z,54.30
2022-08-17T00:57:51.258Z,53.90
2022-08-17T01:00:28.500Z,53.60
2022-08-17T01:03:00.820Z,53.20
2022-08-17T01:05:33.229Z,53.20
2022-08-17T01:08:03.051Z,53.10
2022-08-17T01:11:00.627Z,53.20
2022-08-17T01:13:27.226Z,52.70
2022-08-17T01:16:05.402Z,52.50
2022-08-17T01:18:35.723Z,52.60
2022-08-17T01:21:26.724Z,52.10
2022-08-17T01:24:03.358Z,52.20
2022-08-17T01:26:34.363Z,52.00
2022-08-17T01:29:21.163Z,52.10
2022-08-17T01:31:53.848Z,52.10
2022-08-17T01:34:42.341Z,52.30
2022-08-17T01:37:14.293Z,52.40
2022-08-17T01:39:54.719Z,52.40
2022-08-17T01:42:33.527Z,52.40
2022-08-17T01:45:10.744Z,52.10
2022-08-17T01:47:41.441Z,52.20
2022-08-17T01:50:15.907Z,52.00
2022-08-17T01:52:58.600Z,52.10
2022-08-17T01:55:37.491Z,52.10
2022-08-17T01:58:12.212Z,52.20
2022-08-17T02:01:00.140Z,52.40
2022-08-17T02:03:32.323Z,52.50
2022-08-17T02:06:01.497Z,52.60
2022-08-17T02:08:38.779Z,52.70
2022-08-17T02:11:26.788Z,53.00
2022-08-17T02:13:57.874Z,53.20
2022-08-17T02:16:37.313Z,53.40
2022-08-17T02:19:10.240Z,53.30
2022-08-17T02:21:40.027Z,53.60
2022-08-17T02:24:18.619Z,53.80
2022-08-17T02:27:10.533Z,53.80
2022-08-17T02:29:41.489Z,54.00
2022-08-17T02:32:25.448Z,54.20
2022-08-17T02:35:01.947Z,54.30
2022-08-17T02:37:33.108Z,54.50
2022-08-17T02:40:06.744Z,54.60
2022-08-17T02:42:39.774Z,54.80
2022-08-17T02:45:14.967Z,54.80
2022-08-17T02:47:48.261Z,54.90
2022-08-17T02:50:29.087Z,55.10
2022-08-17T02:53:02.507Z,55.10
2022-08-17T02:55:35.004Z,55.30
2022-08-17T02:58:13.652Z,55.40
2022-08-17T03:00:47.215Z,55.50
2022-08-17T03:03:19.850Z,55.60
2022-08-17T03:05:53.078Z,55.80
2022-08-17T03:08:23.825Z,55.90
2022-08-17T03:10:53.295Z,56.10
2022-08-17T03:13:24.539Z,56.10
2022-08-17T03:15:55.525Z,56.10
2022-08-17T03:18:26.520Z,56.20
2022-08-17T03:23:41.359Z,56.10
2022-08-17T03:26:15.493Z,56.30
2022-08-17T03:28:48.554Z,56.40
2022-08-17T03:31:18.396Z,56.70
2022-08-17T03:33:46.613Z,56.90
2022-08-17T03:36:15.459Z,57.40
2022-08-17T03:38:43.928Z,57.60
2022-08-17T03:41:14.325Z,58.00
2022-08-17T03:43:44.729Z,58.60
2022-08-17T03:46:35.663Z,58.60
2022-08-17T03:49:24.647Z,58.60
2022-08-17T03:52:10.679Z,59.20
2022-08-17T03:54:59.051Z,59.70
2022-08-17T03:57:30.164Z,60.00
2022-08-17T04:00:03.217Z,60.50
2022-08-17T04:02:36.102Z,60.60
2022-08-17T04:05:05.426Z,60.90
2022-08-17T04:07:35.840Z,61.00
2022-08-17T04:10:05.322Z,61.30
2022-08-17T04:12:47.263Z,61.50
2022-08-17T04:15:15.845Z,61.80
2022-08-17T04:17:46.964Z,62.00
2022-08-17T04:20:20.550Z,62.30
2022-08-17T04:23:02.718Z,62.60
2022-08-17T04:25:36.832Z,62.90
2022-08-17T04:28:09.037Z,63.00
2022-08-17T04:30:47.500Z,63.50
2022-08-17T04:33:18.902Z,64.10
2022-08-17T04:35:50.693Z,64.90
2022-08-17T04:38:23.172Z,65.40
2022-08-17T04:41:24.667Z,65.90
2022-08-17T04:44:00.571Z,66.60
2022-08-17T04:46:33.049Z,67.00
2022-08-17T04:49:09.227Z,67.40
2022-08-17T04:51:51.628Z,68.10
2022-08-17T04:54:26.250Z,68.30
2022-08-17T04:56:57.737Z,68.40
2022-08-17T04:59:27.197Z,68.90
2022-08-17T05:01:58.359Z,69.20
2022-08-17T05:04:34.539Z,69.60
2022-08-17T05:07:04.725Z,69.60
2022-08-17T05:09:33.614Z,69.70
2022-08-17T05:12:03.040Z,69.80
2022-08-17T05:14:33.137Z,69.90
2022-08-17T05:17:07.057Z,70.20
2022-08-17T05:19:41.197Z,70.50
2022-08-17T05:22:09.535Z,70.80
2022-08-17T05:24:43.765Z,71.00
2022-08-17T05:27:24.875Z,71.20
2022-08-17T05:30:01.473Z,71.20
2022-08-17T05:32:48.325Z,71.30
2022-08-17T05:35:34.646Z,71.60
2022-08-17T05:43:56.899Z,72.00
2022-08-17T05:49:51.447Z,71.90
2022-08-17T05:52:34.539Z,72.20
2022-08-17T05:55:16.472Z,72.50
2022-08-17T05:58:03.385Z,72.40
2022-08-17T06:00:42.116Z,72.40
2022-08-17T06:03:40.203Z,72.30
2022-08-17T06:06:31.135Z,72.40
2022-08-17T06:09:46.687Z,72.50
2022-08-17T06:12:43.224Z,72.30
2022-08-17T06:15:45.809Z,72.20
2022-08-17T06:18:18.917Z,72.30
2022-08-17T06:20:53.037Z,71.60
2022-08-17T06:23:28.080Z,71.20
2022-08-17T06:26:06.864Z,71.10
2022-08-17T06:28:39.347Z,70.90
2022-08-17T06:31:20.048Z,70.90
2022-08-17T06:33:53.340Z,70.60
2022-08-17T06:36:50.471Z,70.10
2022-08-17T06:39:49.861Z,70.00
2022-08-17T06:42:54.738Z,70.10
2022-08-17T06:45:39.038Z,70.00
2022-08-17T06:48:24.504Z,69.90
2022-08-17T06:51:00.305Z,69.70
2022-08-17T06:53:39.561Z,69.20
2022-08-17T06:56:11.555Z,69.00
2022-08-17T06:58:47.072Z,68.60
2022-08-17T07:01:19.082Z,68.30
2022-08-17T07:03:57.966Z,68.10
2022-08-17T07:06:33.064Z,68.20
2022-08-17T07:09:10.716Z,68.10
2022-08-17T07:11:47.407Z,67.90
2022-08-17T07:14:32.080Z,67.90
2022-08-17T07:17:04.858Z,67.80
2022-08-17T07:19:36.295Z,68.00
2022-08-17T07:22:18.479Z,67.70
2022-08-17T07:24:57.861Z,67.70
2022-08-17T07:27:31.292Z,67.40
2022-08-17T07:30:12.052Z,67.50
2022-08-17T07:33:02.224Z,67.40
2022-08-17T07:35:41.266Z,67.20
2022-08-17T07:38:25.221Z,67.40
2022-08-17T07:41:03.739Z,67.60
2022-08-17T07:43:40.167Z,67.50
2022-08-17T07:46:40.117Z,67.30
2022-08-17T07:49:39.155Z,67.10
2022-08-17T07:52:47.293Z,66.50
2022-08-17T07:55:27.975Z,66.20
2022-08-17T07:57:58.294Z,65.70
2022-08-17T08:00:32.229Z,65.30
2022-08-17T08:03:16.681Z,64.80
2022-08-17T08:05:55.382Z,64.60
2022-08-17T08:08:29.171Z,64.30
2022-08-17T08:11:07.810Z,63.90
2022-08-17T08:13:42.303Z,63.50
2022-08-17T08:16:31.249Z,63.20
2022-08-17T08:19:03.203Z,63.20
2022-08-17T08:21:39.670Z,62.10
2022-08-17T08:24:30.109Z,61.70
2022-08-17T08:27:08.211Z,61.30
2022-08-17T08:29:45.986Z,61.00
2022-08-17T08:32:21.324Z,60.80
2022-08-17T08:35:08.318Z,60.70
2022-08-17T08:37:46.063Z,60.30
2022-08-17T08:40:33.290Z,60.20
2022-08-17T08:43:15.230Z,60.60
2022-08-17T08:45:50.831Z,60.60
2022-08-17T08:48:56.665Z,60.70
2022-08-17T08:51:38.910Z,60.30
2022-08-17T08:54:17.720Z,58.80
2022-08-17T08:57:23.197Z,59.40
2022-08-17T09:00:14.557Z,59.40
2022-08-17T09:03:28.068Z,59.60
2022-08-17T09:06:32.096Z,60.50
2022-08-17T09:09:19.096Z,61.60
2022-08-17T09:12:01.838Z,62.50
2022-08-17T09:14:44.966Z,63.20
2022-08-17T09:17:19.283Z,63.20
2022-08-17T09:19:52.549Z,63.80
2022-08-17T09:22:32.520Z,64.60
2022-08-17T09:25:09.704Z,65.50
2022-08-17T09:27:49.370Z,64.60
2022-08-17T09:30:19.467Z,63.80
2022-08-17T09:32:55.395Z,63.30
2022-08-17T09:35:32.940Z,62.90
2022-08-17T09:38:16.190Z,61.90
2022-08-17T09:40:52.727Z,61.80
2022-08-17T09:43:30.615Z,61.80
2022-08-17T09:46:04.179Z,62.30
2022-08-17T09:48:37.363Z,62.70
2022-08-17T09:51:12.318Z,63.20
2022-08-17T09:53:41.411Z,63.50
2022-08-17T09:56:32.877Z,63.90
2022-08-17T09:59:27.481Z,64.90
2022-08-17T10:02:26.022Z,65.30
2022-08-17T10:05:01.735Z,66.30
2022-08-17T10:07:35.043Z,66.90
2022-08-17T10:10:14.402Z,67.10
2022-08-17T10:12:53.226Z,67.70
2022-08-17T10:15:36.747Z,68.10
2022-08-17T10:18:22.451Z,68.30
2022-08-17T10:21:16.954Z,68.20
2022-08-17T10:24:06.066Z,68.30
2022-08-17T10:26:46.211Z,68.30
2022-08-17T10:29:30.452Z,67.90
2022-08-17T10:32:25.935Z,67.90
2022-08-17T10:35:19.921Z,67.40
2022-08-17T10:38:29.753Z,67.20
2022-08-17T10:41:06.148Z,67.10
2022-08-17T10:44:36.794Z,66.90
2022-08-17T10:46:54.314Z,66.70
2022-08-17T10:49:35.026Z,66.60
2022-08-17T10:52:09.034Z,66.10
2022-08-17T10:54:46.793Z,66.00
2022-08-17T10:57:46.010Z,66.20
2022-08-17T11:01:05.783Z,65.50
2022-08-17T11:03:35.629Z,64.70
2022-08-17T11:06:16.337Z,64.40
2022-08-17T11:09:12.696Z,64.00
2022-08-17T11:11:59.873Z,63.90
2022-08-17T11:14:44.207Z,63.00
2022-08-17T11:17:30.333Z,62.30
2022-08-17T11:20:21.106Z,61.40
2022-08-17T11:23:14.659Z,60.20
2022-08-17T11:25:53.355Z,59.50
2022-08-17T11:28:25.865Z,58.70
2022-08-17T11:30:57.488Z,57.90
2022-08-17T11:33:56.243Z,56.50
2022-08-17T11:36:49.479Z,56.90
2022-08-17T11:40:05.766Z,56.90
2022-08-17T11:43:06.846Z,56.60
2022-08-17T11:45:53.536Z,56.30
2022-08-17T11:48:52.804Z,55.70
2022-08-17T11:51:35.266Z,55.40
2022-08-17T11:57:00.827Z,54.30
2022-08-17T11:59:58.993Z,53.90
2022-08-17T12:02:47.530Z,54.50
2022-08-17T12:05:34.302Z,53.90
2022-08-17T12:08:14.788Z,53.20
2022-08-17T12:11:00.626Z,52.80
2022-08-17T12:13:38.777Z,52.40
2022-08-17T12:16:10.799Z,51.40
2022-08-17T12:18:42.076Z,51.10
2022-08-17T12:21:26.201Z,50.80
2022-08-17T12:24:01.283Z,51.20
2022-08-17T12:26:35.477Z,50.10
2022-08-17T12:29:07.142Z,49.50
2022-08-17T12:31:44.433Z,49.20
2022-08-17T12:34:18.489Z,48.50
2022-08-17T12:36:47.696Z,48.30
2022-08-17T12:39:21.606Z,48.00
2022-08-17T12:42:02.079Z,47.70
2022-08-17T12:44:32.842Z,46.60
2022-08-17T12:47:04.716Z,45.60
2022-08-17T12:49:36.112Z,44.80
2022-08-17T12:52:09.596Z,44.20
2022-08-17T12:54:47.967Z,43.40
2022-08-17T12:57:20.299Z,43.10
2022-08-17T12:59:54.305Z,42.60
2022-08-17T13:02:39.269Z,42.80
2022-08-17T13:05:09.897Z,42.10
2022-08-17T13:07:43.654Z,40.70
2022-08-17T13:10:22.606Z,40.90
2022-08-17T13:12:53.278Z,40.20
2022-08-17T13:15:25.343Z,40.10
2022-08-17T13:18:31.475Z,39.80
2022-08-17T13:21:01.116Z,39.10
2022-08-17T13:23:32.367Z,38.50
2022-08-17T13:26:08.767Z,38.00
2022-08-17T13:28:38.852Z,38.10
2022-08-17T13:31:32.401Z,37.90
2022-08-17T13:34:31.980Z,38.40
2022-08-17T13:37:35.913Z,37.60
2022-08-17T13:40:28.067Z,37.10
2022-08-17T13:42:57.671Z,36.70
2022-08-17T13:45:51.763Z,37.20
2022-08-17T13:48:27.132Z,37.20
2022-08-17T13:51:13.363Z,37.30
2022-08-17T13:54:01.386Z,37.60
2022-08-17T13:56:39.027Z,37.60
2022-08-17T13:59:11.166Z,37.90
2022-08-17T14:01:43.634Z,37.70
2022-08-17T14:04:14.206Z,37.80
2022-08-17T14:06:53.979Z,37.90
2022-08-17T14:09:24.652Z,38.30
2022-08-17T14:11:54.083Z,39.00
2022-08-17T14:14:23.739Z,39.20
2022-08-17T14:16:56.555Z,39.10
2022-08-17T14:19:26.385Z,39.30
2022-08-17T14:21:56.605Z,39.60
2022-08-17T14:24:28.177Z,39.90
2022-08-17T14:26:58.913Z,40.30
2022-08-17T14:29:29.364Z,40.50
2022-08-17T14:32:00.293Z,41.10
2022-08-17T14:34:28.532Z,41.20
2022-08-17T14:36:57.669Z,41.50
2022-08-17T14:39:27.089Z,41.60
2022-08-17T14:41:58.383Z,41.80
2022-08-17T14:44:26.659Z,41.80
2022-08-17T14:46:54.892Z,42.00
2022-08-17T14:49:26.041Z,42.30
2022-08-17T14:51:54.266Z,42.30
2022-08-17T14:54:28.861Z,42.50
2022-08-17T14:57:24.537Z,42.60
2022-08-17T14:59:55.173Z,42.70
2022-08-17T15:02:30.158Z,42.90
2022-08-17T15:05:03.647Z,43.10
2022-08-17T15:07:32.431Z,43.30
2022-08-17T15:10:02.127Z,43.50
2022-08-17T15:12:33.550Z,43.60
2022-08-17T15:15:05.553Z,43.80
2022-08-17T15:17:44.879Z,43.90
2022-08-17T15:20:29.951Z,44.20
2022-08-17T15:22:59.449Z,44.40
2022-08-17T15:25:30.143Z,44.40
2022-08-17T15:27:58.608Z,44.70
2022-08-17T15:30:27.439Z,44.90
2022-08-17T15:32:57.463Z,45.10
2022-08-17T15:35:29.981Z,45.30
2022-08-17T15:38:06.504Z,45.50
2022-08-17T15:40:40.245Z,45.80
2022-08-17T15:43:14.082Z,46.20
2022-08-17T15:45:42.434Z,46.30
2022-08-17T15:48:11.382Z,46.60
2022-08-17T15:50:41.235Z,46.80
2022-08-17T15:53:09.687Z,47.00
2022-08-17T15:55:38.739Z,47.60
2022-08-17T15:58:09.207Z,47.50
2022-08-17T16:00:44.107Z,48.30
2022-08-17T16:04:01.203Z,49.20
2022-08-17T16:06:11.962Z,50.20
2022-08-17T16:08:43.841Z,50.60
2022-08-17T16:11:13.989Z,52.00
2022-08-17T16:13:47.355Z,52.90
2022-08-17T16:16:23.701Z,54.10
2022-08-17T16:18:53.539Z,55.40
2022-08-17T16:21:27.568Z,57.00
2022-08-17T16:24:00.742Z,57.80
2022-08-17T16:26:30.243Z,58.30
2022-08-17T16:29:00.112Z,59.10
2022-08-17T16:31:29.105Z,59.50
2022-08-17T16:34:16.100Z,59.60
2022-08-17T16:36:55.779Z,59.40
2022-08-17T16:39:26.869Z,59.90
2022-08-17T16:41:56.076Z,60.40
2022-08-17T16:44:25.954Z,61.80
2022-08-17T16:46:58.308Z,63.00
2022-08-17T16:49:36.815Z,63.70
2022-08-17T16:52:11.301Z,63.90
2022-08-17T16:54:43.897Z,64.50
2022-08-17T16:57:13.114Z,64.90
2022-08-17T16:59:44.975Z,64.90
2022-08-17T17:02:17.251Z,65.30
2022-08-17T17:04:51.956Z,64.50
2022-08-17T17:07:44.317Z,65.00
2022-08-17T17:10:17.347Z,65.10
2022-08-17T17:13:02.835Z,65.20
2022-08-17T17:15:45.970Z,65.30
2022-08-17T17:18:16.752Z,65.90
2022-08-17T17:20:53.571Z,66.10
2022-08-17T17:23:37.350Z,66.10
2022-08-17T17:26:17.807Z,66.00
2022-08-17T17:28:57.345Z,66.60
2022-08-17T17:31:31.274Z,67.00
2022-08-17T17:34:03.820Z,67.30
2022-08-17T17:36:38.208Z,67.30
2022-08-17T17:39:12.985Z,67.20
2022-08-17T17:41:48.297Z,66.90
2022-08-17T17:44:29.792Z,66.80
2022-08-17T17:47:00.693Z,66.90
2022-08-17T17:49:34.034Z,66.80
2022-08-17T17:52:14.274Z,66.50
2022-08-17T17:54:57.835Z,67.00
2022-08-17T17:57:35.290Z,66.80
2022-08-17T18:00:09.431Z,67.10
2022-08-17T18:02:51.279Z,68.00
2022-08-17T18:05:47.171Z,68.80
2022-08-17T18:08:36.062Z,68.80
2022-08-17T18:11:24.594Z,68.90
2022-08-17T18:14:14.455Z,69.70
2022-08-17T18:16:43.554Z,70.30
2022-08-17T18:19:14.023Z,70.70
2022-08-17T18:21:44.740Z,70.90
2022-08-17T18:24:14.203Z,70.80
2022-08-17T18:26:55.081Z,71.00
2022-08-17T18:29:38.492Z,71.10
2022-08-17T18:32:23.020Z,71.00
2022-08-17T18:34:53.771Z,71.20
2022-08-17T18:37:36.881Z,71.30
2022-08-17T18:40:32.631Z,71.20
2022-08-17T18:43:07.324Z,71.20
2022-08-17T18:45:42.903Z,71.20
2022-08-17T18:48:25.177Z,71.40
2022-08-17T18:50:55.623Z,71.20
2022-08-17T18:53:37.852Z,71.30
2022-08-17T18:56:30.783Z,71.60
2022-08-17T18:59:11.093Z,72.10
2022-08-17T19:01:52.661Z,72.40
2022-08-17T19:04:34.456Z,72.50
2022-08-17T19:07:26.372Z,72.10
2022-08-17T19:09:59.465Z,72.10
2022-08-17T19:12:33.349Z,72.10
2022-08-17T19:15:04.378Z,72.10
2022-08-17T19:17:42.916Z,71.80
2022-08-17T19:20:17.227Z,71.60
2022-08-17T19:23:03.206Z,71.60
2022-08-17T19:25:35.552Z,71.80
2022-08-17T19:28:21.599Z,72.00
2022-08-17T19:30:56.938Z,72.00
2022-08-17T19:33:26.221Z,72.20
2022-08-17T19:36:03.070Z,72.50
2022-08-17T19:38:41.561Z,73.00
2022-08-17T19:41:17.992Z,72.90
2022-08-17T19:44:07.412Z,73.30
2022-08-17T19:46:48.644Z,73.20
2022-08-17T19:49:41.139Z,73.10
2022-08-17T19:52:26.664Z,73.10
2022-08-17T19:55:00.177Z,73.10
2022-08-17T19:57:43.475Z,72.90
2022-08-17T20:00:14.898Z,72.80
2022-08-17T20:02:52.315Z,73.00
2022-08-17T20:05:24.977Z,73.10
2022-08-17T20:07:57.930Z,73.70
2022-08-17T20:10:38.225Z,73.90
2022-08-17T20:13:11.230Z,73.90
2022-08-17T20:15:43.720Z,73.90
2022-08-17T20:18:19.990Z,74.30
2022-08-17T20:20:57.754Z,74.40
2022-08-17T20:23:42.240Z,74.80
2022-08-17T20:26:19.681Z,75.00
2022-08-17T20:29:09.180Z,74.80
2022-08-17T20:31:47.165Z,74.60
2022-08-17T20:34:37.855Z,74.60
2022-08-17T20:37:10.330Z,75.00
2022-08-17T20:39:42.363Z,74.70
2022-08-17T20:42:28.429Z,74.80
2022-08-17T20:44:58.877Z,74.80
2022-08-17T20:47:30.255Z,74.80
2022-08-17T20:50:03.399Z,75.10
2022-08-17T20:52:53.433Z,75.40
2022-08-17T20:55:53.110Z,75.70
2022-08-17T20:58:49.133Z,75.80
2022-08-17T21:01:34.946Z,76.00
2022-08-17T21:04:08.385Z,76.10
2022-08-17T21:07:21.577Z,76.10
2022-08-17T21:09:50.757Z,76.20
2022-08-17T21:12:41.801Z,76.60
2022-08-17T21:15:25.040Z,76.70
2022-08-17T21:18:06.640Z,76.40
2022-08-17T21:20:42.971Z,77.00
2022-08-17T21:23:37.568Z,76.60
2022-08-17T21:26:28.059Z,76.70
2022-08-17T21:29:32.444Z,76.90
2022-08-17T21:32:19.234Z,76.90
2022-08-17T21:35:24.428Z,77.10
2022-08-17T21:37:55.517Z,76.80
2022-08-17T21:40:29.687Z,76.80
2022-08-17T21:43:01.490Z,76.70
2022-08-17T21:45:35.123Z,76.70
2022-08-17T21:48:15.772Z,76.80
2022-08-17T21:50:47.572Z,76.50
2022-08-17T21:53:27.032Z,76.50
2022-08-17T21:56:00.489Z,76.90
2022-08-17T21:58:32.168Z,77.10
2022-08-17T22:01:21.864Z,77.30
2022-08-17T22:04:01.579Z,77.40
2022-08-17T22:06:35.271Z,77.60
2022-08-17T22:09:11.977Z,77.70
2022-08-17T22:11:58.156Z,77.70
2022-08-17T22:14:52.648Z,77.60
2022-08-17T22:17:21.213Z,77.40
2022-08-17T22:19:53.825Z,77.50
2022-08-17T22:22:28.550Z,77.60
2022-08-17T22:24:59.194Z,77.60
2022-08-17T22:27:52.519Z,77.80
2022-08-17T22:30:36.184Z,77.90
2022-08-17T22:33:36.152Z,78.20
2022-08-17T22:36:13.948Z,78.40
2022-08-17T22:38:43.818Z,78.50
2022-08-17T22:41:34.809Z,78.50
2022-08-17T22:44:17.598Z,78.70
2022-08-17T22:46:59.215Z,78.80
2022-08-17T22:49:31.020Z,78.80
2022-08-17T22:52:05.496Z,78.60
2022-08-17T22:54:50.629Z,78.70
2022-08-17T22:57:38.540Z,78.50
2022-08-17T23:00:30.272Z,78.40
2022-08-17T23:03:12.190Z,78.60
2022-08-17T23:05:45.077Z,78.60
2022-08-17T23:08:14.209Z,78.50
2022-08-17T23:10:45.308Z,78.20
2022-08-17T23:13:13.996Z,78.20
2022-08-17T23:15:44.597Z,78.00
2022-08-17T23:18:12.802Z,78.20
2022-08-17T23:20:42.418Z,78.20
2022-08-17T23:23:12.491Z,78.30
2022-08-17T23:25:40.948Z,78.60
2022-08-17T23:28:09.146Z,78.60
2022-08-17T23:30:43.337Z,78.70
2022-08-17T23:33:20.105Z,78.70
2022-08-17T23:35:49.510Z,78.40
2022-08-17T23:38:27.579Z,78.30
2022-08-17T23:40:59.982Z,78.30
2022-08-17T23:43:29.851Z,78.40
2022-08-17T23:45:59.733Z,78.30
2022-08-17T23:48:36.627Z,78.40
2022-08-17T23:51:11.323Z,78.50
2022-08-17T23:53:47.336Z,78.40
2022-08-17T23:56:27.834Z,78.50
2022-08-17T23:58:58.511Z,78.40
